Time;durP1;ratioP1;P1;durP2;ratioP2;P2;SDS_P1;SDS_P2;PMS_P1;PMS_P2;Temp;Humidity;BMP_temperature;BMP_pressure;BME280_temperature;BME280_humidity;BME280_pressure;Samples;Min_cycle;Max_cycle;Signal;HPM_P1;HPM_P2
2023/01/15 00:02:23;;;;;;;59.80;38.50;;;;;;;0.50;100.00;97812.57;110676;1238;68685;-71
2023/01/15 00:04:52;;;;;;;49.60;31.80;;;;;;;0.52;100.00;97811.15;110674;1238;69268;-71
2023/01/15 00:07:21;;;;;;;43.60;29.20;;;;;;;0.54;100.00;97814.02;110658;1238;59702;-71
2023/01/15 00:09:50;;;;;;;48.50;31.50;;;;;;;0.54;100.00;97807.83;110700;1238;59744;-71
2023/01/15 00:12:19;;;;;;;47.40;30.70;;;;;;;0.54;100.00;97806.48;110380;1238;71387;-71
2023/01/15 00:14:48;;;;;;;48.50;33.10;;;;;;;0.56;100.00;97805.75;110663;1238;69252;-71
2023/01/15 00:17:17;;;;;;;50.10;34.30;;;;;;;0.58;100.00;97803.97;110684;1238;69879;-71
2023/01/15 00:19:46;;;;;;;53.90;35.70;;;;;;;0.60;100.00;97804.59;110528;1242;59744;-71
2023/01/15 00:22:15;;;;;;;56.70;37.10;;;;;;;0.63;100.00;97806.39;110625;1238;59661;-71
2023/01/15 00:27:38;;;;;;;48.10;33.30;;;;;;;0.69;100.00;97805.04;110559;1241;67420;-69
2023/01/15 00:30:12;;;;;;;53.60;36.40;;;;;;;0.70;100.00;97806.55;110506;1240;69151;-70
2023/01/15 00:32:42;;;;;;;55.70;36.60;;;;;;;0.72;100.00;97805.79;110524;1238;59814;-70
2023/01/15 00:35:17;;;;;;;61.30;41.00;;;;;;;0.74;100.00;97810.06;110549;1240;59728;-69
2023/01/15 00:37:47;;;;;;;56.20;37.70;;;;;;;0.73;100.00;97810.41;110453;1240;71166;-70
2023/01/15 00:40:18;;;;;;;52.60;32.90;;;;;;;0.71;100.00;97813.73;110277;1242;68564;-70
2023/01/15 00:42:47;;;;;;;53.60;34.10;;;;;;;0.70;100.00;97818.21;110333;1242;68343;-69
2023/01/15 00:45:22;;;;;;;55.70;36.40;;;;;;;0.68;100.00;97824.44;110624;1242;59817;-69
2023/01/15 00:47:52;;;;;;;54.20;36.40;;;;;;;0.66;100.00;97824.00;110346;1242;59784;-70
2023/01/15 00:50:21;;;;;;;66.60;42.30;;;;;;;0.65;100.00;97818.53;110485;1238;71971;-70
2023/01/15 00:52:50;;;;;;;68.70;41.90;;;;;;;0.63;100.00;97815.14;110548;1242;69275;-70
2023/01/15 00:55:20;;;;;;;68.30;42.70;;;;;;;0.64;100.00;97809.45;110538;1240;69520;-69
2023/01/15 00:57:49;;;;;;;65.80;42.00;;;;;;;0.68;100.00;97808.66;110605;1238;59669;-70
2023/01/15 01:00:19;;;;;;;82.00;50.40;;;;;;;0.69;100.00;97806.23;110579;1241;59660;-69
2023/01/15 01:02:48;;;;;;;77.80;49.20;;;;;;;0.69;100.00;97801.94;110287;1242;71210;-69
2023/01/15 01:05:17;;;;;;;76.40;49.10;;;;;;;0.69;100.00;97801.77;110452;1241;68424;-69
2023/01/15 01:07:46;;;;;;;68.10;44.00;;;;;;;0.70;100.00;97798.85;110446;1241;69166;-70
2023/01/15 01:10:16;;;;;;;59.80;43.00;;;;;;;0.73;100.00;97800.30;110472;1238;59651;-69
2023/01/15 01:12:47;;;;;;;57.30;38.10;;;;;;;0.75;100.00;97796.65;110659;1238;59683;-69
2023/01/15 01:15:18;;;;;;;64.00;42.40;;;;;;;0.75;100.00;97798.67;110476;1241;71390;-69
2023/01/15 01:17:47;;;;;;;61.80;40.90;;;;;;;0.75;100.00;97793.02;110285;1242;69822;-72
2023/01/15 01:20:18;;;;;;;69.30;45.20;;;;;;;0.77;100.00;97786.11;110393;1242;68325;-70
2023/01/15 01:22:48;;;;;;;70.10;44.60;;;;;;;0.78;100.00;97782.48;110516;1238;59684;-69
2023/01/15 01:25:18;;;;;;;;;;;;;;;0.77;100.00;97781.83;110601;1241;59708;-70
2023/01/15 01:27:47;;;;;;;59.30;40.10;;;;;;;0.76;100.00;97781.85;110467;1238;70387;-70
2023/01/15 01:30:18;;;;;;;73.70;48.20;;;;;;;0.76;100.00;97776.02;110562;1242;69217;-71
2023/01/15 01:32:47;;;;;;;;;;;;;;;0.77;100.00;97768.45;110518;1238;69833;-70
2023/01/15 01:35:17;;;;;;;61.00;41.30;;;;;;;0.78;100.00;97767.71;110542;1240;59684;-70
2023/01/15 01:37:52;;;;;;;67.40;45.20;;;;;;;0.78;100.00;97769.10;110629;1238;59637;-70
2023/01/15 01:40:23;;;;;;;86.20;55.80;;;;;;;0.77;100.00;97764.31;110583;1241;71960;-70
2023/01/15 01:42:52;;;;;;;62.10;43.20;;;;;;;0.75;100.00;97760.60;110226;1241;69301;-70
2023/01/15 01:45:26;;;;;;;74.30;49.10;;;;;;;0.75;100.00;97755.99;110450;1241;69350;-70
2023/01/15 01:48:04;;;;;;;77.80;49.20;;;;;;;0.75;100.00;97756.17;110345;1239;59742;-70
2023/01/15 01:50:36;;;;;;;64.80;43.60;;;;;;;0.74;100.00;97748.62;110373;1241;59662;-70
2023/01/15 01:53:12;;;;;;;64.60;43.60;;;;;;;0.76;100.00;97744.98;110528;1240;71362;-70
2023/01/15 01:55:42;;;;;;;77.40;47.80;;;;;;;0.78;100.00;97740.46;110478;1241;69799;-70
2023/01/15 01:58:14;;;;;;;70.90;46.20;;;;;;;0.79;100.00;97738.54;110498;1241;69298;-70
2023/01/15 02:00:47;;;;;;;67.10;43.60;;;;;;;0.81;100.00;97739.52;110237;1242;59730;-70
2023/01/15 02:03:20;;;;;;;65.60;44.10;;;;;;;0.80;100.00;97738.17;110419;1242;59692;-70
2023/01/15 02:05:55;;;;;;;62.70;42.80;;;;;;;0.80;100.00;97739.20;110366;1241;70851;-70
2023/01/15 02:08:26;;;;;;;64.50;42.20;;;;;;;0.82;100.00;97735.70;110502;1239;68395;-70
2023/01/15 02:10:57;;;;;;;65.20;42.80;;;;;;;0.84;100.00;97738.04;110507;1241;69697;-70
2023/01/15 02:13:40;;;;;;;56.80;37.30;;;;;;;0.85;100.00;97734.58;110437;1241;59709;-70
2023/01/15 02:16:13;;;;;;;56.90;40.50;;;;;;;0.88;100.00;97735.02;110457;1240;59689;-70
2023/01/15 02:19:09;;;;;;;72.30;46.10;;;;;;;0.88;100.00;97730.20;110309;1242;71408;-70
2023/01/15 02:21:49;;;;;;;52.60;35.30;;;;;;;0.89;100.00;97732.08;110647;1241;68312;-70
2023/01/15 02:24:36;;;;;;;58.40;37.60;;;;;;;0.89;100.00;97732.07;110380;1242;70099;-70
2023/01/15 02:27:19;;;;;;;62.90;41.90;;;;;;;0.89;100.00;97730.70;110262;1242;59669;-70
2023/01/15 02:30:15;;;;;;;55.30;38.40;;;;;;;0.89;100.00;97730.88;110272;1242;59681;-70
2023/01/15 02:33:45;;;;;;;55.10;35.70;;;;;;;0.89;100.00;97727.27;110474;1241;71306;-70
2023/01/15 02:36:22;;;;;;;60.30;38.40;;;;;;;0.90;100.00;97728.77;109589;1247;69159;-70
2023/01/15 02:38:56;;;;;;;54.30;37.90;;;;;;;0.91;100.00;97722.55;110316;1241;69173;-70
2023/01/15 02:41:37;;;;;;;55.10;37.30;;;;;;;0.92;100.00;97722.36;110504;1238;59694;-70
2023/01/15 02:44:09;;;;;;;61.90;42.50;;;;;;;0.95;100.00;97720.39;110383;1241;59693;-70
2023/01/15 02:46:42;;;;;;;62.20;43.10;;;;;;;0.95;100.00;97714.05;110392;1242;70470;-70
2023/01/15 02:49:20;;;;;;;60.90;42.00;;;;;;;0.93;100.00;97716.31;110225;1245;68626;-71
2023/01/15 02:52:07;;;;;;;61.30;40.00;;;;;;;0.91;100.00;97718.27;110140;1240;666041;-71
2023/01/15 02:54:51;;;;;;;48.60;35.30;;;;;;;0.91;100.00;97720.48;110446;1241;59757;-72
2023/01/15 02:57:25;;;;;;;73.90;53.40;;;;;;;0.92;100.00;97718.07;110472;1242;59812;-70
2023/01/15 02:59:59;;;;;;;80.10;51.90;;;;;;;0.90;100.00;97715.02;110543;1240;71392;-72
2023/01/15 03:02:54;;;;;;;66.40;44.70;;;;;;;0.90;100.00;97712.30;110638;1240;69191;-71
2023/01/15 03:05:32;;;;;;;69.60;45.50;;;;;;;0.89;100.00;97710.64;110318;1244;68410;-71
2023/01/15 03:08:07;;;;;;;57.80;39.40;;;;;;;0.89;100.00;97709.25;110615;1240;59747;-71
2023/01/15 03:10:43;;;;;;;50.30;35.30;;;;;;;0.88;100.00;97705.50;110395;1242;59680;-70
2023/01/15 03:13:43;;;;;;;57.10;38.40;;;;;;;0.89;100.00;97710.78;110769;1238;70633;-71
2023/01/15 03:16:45;;;;;;;59.60;38.10;;;;;;;0.90;100.00;97711.95;110728;1242;68485;-71
2023/01/15 03:19:22;;;;;;;51.40;38.10;;;;;;;0.92;100.00;97712.06;110121;1242;69503;-71
2023/01/15 03:22:27;;;;;;;56.50;38.60;;;;;;;0.92;100.00;97708.96;110387;1242;59685;-71
2023/01/15 03:25:08;;;;;;;59.20;40.20;;;;;;;0.93;100.00;97709.13;110768;1240;59681;-71
2023/01/15 03:27:44;;;;;;;56.50;35.10;;;;;;;0.94;100.00;97712.86;110453;1242;70610;-71
2023/01/15 03:30:20;;;;;;;67.60;43.50;;;;;;;0.95;100.00;97713.88;110407;1242;69242;-71
2023/01/15 03:32:53;;;;;;;59.30;38.50;;;;;;;0.96;100.00;97715.73;110410;1238;68381;-70
2023/01/15 03:35:44;;;;;;;57.70;40.30;;;;;;;0.97;100.00;97711.91;110426;1245;59745;-71
2023/01/15 03:38:22;;;;;;;64.30;40.00;;;;;;;0.98;100.00;97712.06;110730;1242;59698;-70
2023/01/15 03:41:18;;;;;;;56.40;37.60;;;;;;;0.99;100.00;97710.49;110785;1238;71995;-71
2023/01/15 03:44:28;;;;;;;69.70;45.60;;;;;;;0.99;100.00;97709.27;110505;1238;69364;-70
2023/01/15 03:47:20;;;;;;;69.30;45.40;;;;;;;1.00;100.00;97707.36;110217;1242;69190;-70
2023/01/15 03:50:02;;;;;;;65.70;42.30;;;;;;;1.00;100.00;97708.89;110277;1245;59724;-70
2023/01/15 03:53:02;;;;;;;61.30;41.40;;;;;;;1.02;100.00;97706.11;110467;1241;59640;-70
2023/01/15 03:55:51;;;;;;;59.30;40.70;;;;;;;1.04;100.00;97707.25;110562;1241;71362;-70
2023/01/15 03:58:37;;;;;;;60.00;41.10;;;;;;;1.06;100.00;97702.40;110334;1242;69321;-71
2023/01/15 04:01:14;;;;;;;70.90;46.30;;;;;;;1.07;100.00;97705.80;110380;1241;69358;-70
2023/01/15 04:03:47;;;;;;;60.60;41.50;;;;;;;1.06;100.00;97707.53;110416;1238;59695;-70
2023/01/15 04:06:19;;;;;;;62.10;42.80;;;;;;;1.07;100.00;97704.77;110314;1242;59679;-70
2023/01/15 04:08:49;;;;;;;58.90;40.60;;;;;;;1.09;100.00;97704.04;110497;1241;71305;-71
2023/01/15 04:11:25;;;;;;;73.50;44.30;;;;;;;1.08;100.00;97701.66;110339;1238;68482;-71
2023/01/15 04:14:04;;;;;;;61.10;41.90;;;;;;;1.08;100.00;97704.41;110749;1238;69544;-70
2023/01/15 04:17:00;;;;;;;54.50;36.20;;;;;;;1.08;100.00;97701.50;110574;1240;59660;-70
2023/01/15 04:19:30;;;;;;;54.20;37.30;;;;;;;1.09;100.00;97705.05;110281;1238;59824;-70
2023/01/15 04:22:02;;;;;;;53.30;38.10;;;;;;;1.11;100.00;97705.52;110316;1238;71418;-71
2023/01/15 04:24:33;;;;;;;57.00;39.50;;;;;;;1.12;100.00;97706.52;110587;1241;68582;-70
2023/01/15 04:27:02;;;;;;;57.90;39.50;;;;;;;1.13;100.00;97705.11;110519;1241;68154;-70
2023/01/15 04:29:31;;;;;;;64.10;42.90;;;;;;;1.14;100.00;97707.28;110542;1238;59788;-70
2023/01/15 04:32:01;;;;;;;62.20;41.20;;;;;;;1.16;100.00;97709.83;110560;1238;59677;-69
2023/01/15 04:34:33;;;;;;;59.10;38.80;;;;;;;1.15;100.00;97705.02;110447;1238;71751;-70
2023/01/15 04:37:03;;;;;;;57.40;39.50;;;;;;;1.15;100.00;97704.17;110558;1241;69066;-70
2023/01/15 04:39:33;;;;;;;51.40;35.30;;;;;;;1.14;100.00;97704.36;110504;1246;69409;-69
2023/01/15 04:44:53;;;;;;;49.40;35.10;;;;;;;1.12;100.00;97711.51;110423;1242;59629;-70
2023/01/15 04:47:24;;;;;;;53.00;36.90;;;;;;;1.10;100.00;97709.13;110478;1241;70606;-70
2023/01/15 04:49:55;;;;;;;50.20;36.00;;;;;;;1.10;100.00;97707.23;110504;1238;68873;-70
2023/01/15 04:52:24;;;;;;;52.90;32.30;;;;;;;1.12;100.00;97705.49;110508;1238;69271;-70
2023/01/15 04:54:54;;;;;;;54.60;35.90;;;;;;;1.13;100.00;97705.98;110482;1241;59675;-70
2023/01/15 04:57:24;;;;;;;61.30;40.90;;;;;;;1.14;100.00;97704.58;110598;1242;60054;-70
2023/01/15 04:59:54;;;;;;;54.40;36.50;;;;;;;1.11;100.00;97700.55;110580;1244;70634;-70
2023/01/15 05:02:24;;;;;;;52.70;37.10;;;;;;;1.06;100.00;97699.14;110515;1241;68815;-70
2023/01/15 05:04:53;;;;;;;66.80;42.00;;;;;;;1.03;100.00;97703.52;110474;1241;69144;-70
2023/01/15 05:07:23;;;;;;;52.90;37.10;;;;;;;1.01;100.00;97703.05;110594;1241;59740;-70
2023/01/15 05:09:53;;;;;;;;;;;;;;;1.00;100.00;97707.52;110631;1238;59677;-71
2023/01/15 05:12:23;;;;;;;48.40;32.80;;;;;;;1.00;100.00;97701.52;110515;1238;71389;-69
2023/01/15 05:14:53;;;;;;;63.20;41.70;;;;;;;1.04;100.00;97702.14;110564;1241;69208;-70
2023/01/15 05:17:22;;;;;;;61.50;40.40;;;;;;;1.06;100.00;97705.99;110563;1241;68519;-70
2023/01/15 05:19:51;;;;;;;64.90;40.80;;;;;;;1.07;100.00;97705.45;110652;1245;60137;-69
2023/01/15 05:22:20;;;;;;;55.90;39.40;;;;;;;1.09;100.00;97707.30;110625;1243;59694;-70
2023/01/15 05:24:49;;;;;;;55.40;38.80;;;;;;;1.09;100.00;97707.45;110628;1240;70623;-70
2023/01/15 05:27:18;;;;;;;57.70;39.20;;;;;;;1.08;100.00;97705.08;110506;1240;67899;-70
2023/01/15 05:29:48;;;;;;;56.80;39.70;;;;;;;1.07;100.00;97698.44;110431;1239;69375;-70
2023/01/15 05:32:17;;;;;;;55.90;38.20;;;;;;;1.07;100.00;97697.58;110588;1240;59728;-70
2023/01/15 05:34:46;;;;;;;57.10;37.40;;;;;;;1.06;100.00;97692.94;110642;1240;59683;-70
2023/01/15 05:37:16;;;;;;;57.50;38.80;;;;;;;1.07;100.00;97694.66;110583;1239;71305;-70
2023/01/15 05:39:45;;;;;;;53.90;38.90;;;;;;;1.06;100.00;97693.64;110600;1239;68539;-70
2023/01/15 05:42:15;;;;;;;50.50;36.10;;;;;;;1.08;100.00;97697.71;110550;1241;69462;-70
2023/01/15 05:44:44;;;;;;;64.10;42.50;;;;;;;1.09;100.00;97693.05;110541;1238;59739;-70
2023/01/15 05:47:14;;;;;;;54.90;38.80;;;;;;;1.09;100.00;97690.10;110522;1242;59736;-71
2023/01/15 05:49:43;;;;;;;57.80;36.00;;;;;;;1.10;100.00;97690.58;110716;1241;71377;-71
2023/01/15 05:52:12;;;;;;;58.30;37.70;;;;;;;1.11;100.00;97693.48;110448;1242;69822;-72
2023/01/15 05:54:41;;;;;;;59.10;40.70;;;;;;;1.12;100.00;97693.64;110503;1240;69388;-71
2023/01/15 05:57:11;;;;;;;61.10;42.30;;;;;;;1.13;100.00;97687.42;110597;1240;59724;-71
2023/01/15 05:59:41;;;;;;;63.30;42.90;;;;;;;1.14;100.00;97688.56;110781;1242;59679;-71
2023/01/15 06:02:10;;;;;;;56.80;38.70;;;;;;;1.17;100.00;97686.80;110736;1241;71939;-71
2023/01/15 06:04:39;;;;;;;66.30;43.00;;;;;;;1.19;100.00;97683.80;110648;1238;69187;-71
2023/01/15 06:07:07;;;;;;;58.10;39.50;;;;;;;1.20;100.00;97683.08;110717;1238;69293;-72
2023/01/15 06:09:36;;;;;;;59.30;39.90;;;;;;;1.21;100.00;97682.20;110710;1240;59739;-71
2023/01/15 06:12:05;;;;;;;54.50;37.70;;;;;;;1.22;100.00;97688.00;110732;1242;59734;-71
2023/01/15 06:14:34;;;;;;;66.50;44.70;;;;;;;1.24;100.00;97687.76;110738;1242;71814;-71
2023/01/15 06:17:03;;;;;;;66.60;44.40;;;;;;;1.24;100.00;97687.74;110411;1238;69263;-71
2023/01/15 06:19:32;;;;;;;76.90;51.30;;;;;;;1.24;100.00;97685.69;110702;1238;69237;-71
2023/01/15 06:22:02;;;;;;;80.30;52.60;;;;;;;1.24;100.00;97681.94;110711;1238;59734;-71
2023/01/15 06:24:31;;;;;;;78.70;52.00;;;;;;;1.25;100.00;97683.77;110748;1240;59717;-71
2023/01/15 06:27:00;;;;;;;76.60;50.50;;;;;;;1.23;100.00;97683.30;110699;1238;70365;-71
2023/01/15 06:29:28;;;;;;;79.50;51.40;;;;;;;1.23;100.00;97683.82;110703;1238;68225;-71
2023/01/15 06:31:57;;;;;;;58.80;40.50;;;;;;;1.23;100.00;97684.70;110729;1238;69134;-71
2023/01/15 06:34:26;;;;;;;66.60;44.60;;;;;;;1.24;100.00;97686.55;110697;1241;59668;-71
2023/01/15 06:36:55;;;;;;;66.30;43.00;;;;;;;1.26;100.00;97686.17;110723;1242;59722;-72
2023/01/15 06:39:23;;;;;;;61.90;42.00;;;;;;;1.28;100.00;97684.72;110657;1241;70633;-71
2023/01/15 06:47:27;;;;;;;58.10;40.60;;;;;;;1.38;100.00;97687.66;110568;1240;59778;-69
2023/01/15 06:49:57;;;;;;;68.60;44.70;;;;;;;1.41;100.00;97688.96;110568;1243;59679;-70
2023/01/15 06:52:28;;;;;;;71.50;49.20;;;;;;;1.44;100.00;97685.60;110436;1241;71461;-70
2023/01/15 06:54:57;;;;;;;81.20;54.50;;;;;;;1.46;100.00;97684.48;110536;1240;69109;-71
2023/01/15 06:57:25;;;;;;;81.20;55.40;;;;;;;1.47;100.00;97688.75;110748;1238;69058;-70
2023/01/15 06:59:54;;;;;;;76.00;52.10;;;;;;;1.50;100.00;97686.60;110588;1241;59655;-70
2023/01/15 07:02:23;;;;;;;78.90;49.70;;;;;;;1.52;100.00;97686.52;110643;1242;59734;-72
2023/01/15 07:04:52;;;;;;;65.90;43.90;;;;;;;1.54;100.00;97684.07;110731;1238;71622;-70
2023/01/15 07:07:20;;;;;;;70.50;50.30;;;;;;;1.55;100.00;97685.77;110530;1240;69217;-71
2023/01/15 07:09:50;;;;;;;78.50;52.10;;;;;;;1.56;100.00;97684.86;110391;1242;69069;-70
2023/01/15 07:12:19;;;;;;;71.10;47.10;;;;;;;1.56;100.00;97683.67;110505;1242;59709;-70
2023/01/15 07:14:48;;;;;;;70.70;46.90;;;;;;;1.57;100.00;97679.52;110623;1239;59693;-70
2023/01/15 07:17:16;;;;;;;75.40;51.80;;;;;;;1.60;100.00;97680.10;110393;1242;70707;-73
2023/01/15 07:19:46;;;;;;;65.60;46.90;;;;;;;1.61;100.00;97675.23;110602;1238;69102;-71
2023/01/15 07:22:14;;;;;;;77.30;52.40;;;;;;;1.65;100.00;97677.88;110359;1242;69144;-72
2023/01/15 07:24:46;;;;;;;69.90;48.90;;;;;;;1.68;100.00;97676.90;110343;1241;59715;-72
2023/01/15 07:27:15;;;;;;;68.30;44.40;;;;;;;1.73;100.00;97680.88;110650;1242;59724;-72
2023/01/15 07:29:43;;;;;;;61.70;44.50;;;;;;;1.78;100.00;97677.09;110370;1238;71296;-72
2023/01/15 07:32:12;;;;;;;47.60;33.80;;;;;;;1.84;100.00;97671.90;110684;1242;69675;-72
2023/01/15 07:34:41;;;;;;;59.80;40.00;;;;;;;1.91;100.00;97673.55;110682;1240;69031;-72
2023/01/15 07:37:09;;;;;;;54.80;38.40;;;;;;;1.97;100.00;97675.23;110706;1242;59696;-72
2023/01/15 07:39:38;;;;;;;47.70;33.60;;;;;;;2.02;100.00;97673.52;110711;1242;59731;-72
2023/01/15 07:50:30;;;;;;;36.70;25.10;;;;;;;2.28;100.00;97656.96;110665;1243;59714;-72
2023/01/15 07:52:59;;;;;;;33.90;24.00;;;;;;;2.35;100.00;97653.63;110600;1242;59691;-72
2023/01/15 07:55:28;;;;;;;58.60;41.70;;;;;;;2.42;100.00;97657.51;110636;1240;70634;-72
2023/01/15 07:57:57;;;;;;;47.60;35.30;;;;;;;2.45;100.00;97659.95;110755;1238;68434;-72
2023/01/15 08:00:26;;;;;;;68.90;47.50;;;;;;;2.49;100.00;97657.58;110730;1241;69687;-73
2023/01/15 08:02:54;;;;;;;62.80;44.30;;;;;;;2.51;100.00;97655.27;110528;1241;59679;-73
2023/01/15 08:05:23;;;;;;;55.00;42.90;;;;;;;2.52;100.00;97655.21;110534;1240;59723;-72
2023/01/15 08:07:51;;;;;;;59.10;44.10;;;;;;;2.57;100.00;97651.61;110551;1238;70429;-72
2023/01/15 08:10:20;;;;;;;55.60;42.00;;;;;;;2.62;100.00;97652.13;110266;1244;69099;-73
2023/01/15 08:15:42;;;;;;;57.50;41.20;;;;;;;2.75;100.00;97650.27;110372;1238;59734;-72
2023/01/15 08:18:11;;;;;;;45.20;34.30;;;;;;;2.80;100.00;97648.18;110758;1241;59701;-72
2023/01/15 08:20:40;;;;;;;41.80;30.60;;;;;;;2.86;100.00;97645.71;110666;1242;71845;-72
2023/01/15 08:23:09;;;;;;;48.80;37.30;;;;;;;2.92;100.00;97650.45;110731;1240;68449;-72
2023/01/15 08:25:38;;;;;;;53.60;38.00;;;;;;;2.96;100.00;97643.42;110702;1241;69280;-72
2023/01/15 08:28:06;;;;;;;43.90;33.00;;;;;;;3.01;100.00;97639.95;110653;1240;59680;-73
2023/01/15 08:30:35;;;;;;;55.50;40.70;;;;;;;3.08;100.00;97645.02;110719;1241;59691;-72
2023/01/15 08:33:04;;;;;;;52.70;39.30;;;;;;;3.15;100.00;97645.97;110586;1241;71904;-72
2023/01/15 08:35:33;;;;;;;52.00;39.00;;;;;;;3.21;100.00;97648.66;110726;1240;68760;-72
2023/01/15 08:38:06;;;;;;;53.90;40.40;;;;;;;3.27;100.00;97649.80;110544;1241;68943;-73
2023/01/15 08:40:57;;;;;;;51.70;37.30;;;;;;;3.32;100.00;97648.73;110628;1242;59682;-72
2023/01/15 08:43:30;;;;;;;48.80;38.10;;;;;;;3.38;100.00;97646.61;110438;1241;59712;-73
2023/01/15 08:46:01;;;;;;;45.50;32.60;;;;;;;3.44;100.00;97641.88;110358;1241;71358;-73
2023/01/15 08:48:31;;;;;;;37.70;27.40;;;;;;;3.49;99.68;97638.20;110608;1241;69814;-73
2023/01/15 08:51:05;;;;;;;35.30;26.40;;;;;;;3.52;98.06;97645.67;110588;1241;68538;-73
2023/01/15 08:53:35;;;;;;;24.20;19.30;;;;;;;3.60;99.46;97638.14;110653;1241;60021;-73
2023/01/15 08:56:10;;;;;;;22.80;17.00;;;;;;;3.64;100.00;97634.16;110703;1241;59632;-72
2023/01/15 08:58:39;;;;;;;24.90;17.80;;;;;;;3.67;99.75;97632.16;110642;1242;71788;-72
2023/01/15 09:01:10;;;;;;;27.20;18.50;;;;;;;3.71;99.84;97629.91;110594;1242;69817;-73
2023/01/15 09:03:40;;;;;;;21.70;16.80;;;;;;;3.75;97.74;97628.36;110578;1242;69303;-72
2023/01/15 09:06:12;;;;;;;19.90;16.20;;;;;;;3.81;98.23;97627.05;110399;1242;59738;-72
2023/01/15 09:08:41;;;;;;;22.10;17.00;;;;;;;3.87;97.33;97625.11;110545;1243;59637;-73
2023/01/15 09:11:12;;;;;;;22.20;16.20;;;;;;;3.89;97.83;97621.38;110471;1241;70415;-72
2023/01/15 09:13:41;;;;;;;20.00;15.00;;;;;;;3.86;95.32;97618.06;110337;1242;69667;-72
2023/01/15 09:16:11;;;;;;;19.30;13.90;;;;;;;3.82;92.14;97612.05;110419;1242;69460;-72
2023/01/15 09:18:40;;;;;;;18.50;14.10;;;;;;;3.86;94.08;97609.45;110455;1242;59696;-71
2023/01/15 09:21:09;;;;;;;18.90;14.00;;;;;;;3.84;92.78;97601.59;110395;1241;59682;-70
2023/01/15 09:23:38;;;;;;;22.90;15.10;;;;;;;3.85;92.66;97597.97;110543;1242;70642;-73
2023/01/15 09:39:03;;;;;;;7.90;6.40;;;;;;;4.29;86.87;97586.55;107131;1272;609656;-71
2023/01/15 09:42:04;;;;;;;9.70;6.80;;;;;;;4.31;85.63;97576.77;108711;1254;252134;-71
2023/01/15 09:44:48;;;;;;;8.50;6.40;;;;;;;4.33;84.27;97570.47;109056;1257;57718;-72
2023/01/15 09:47:38;;;;;;;9.00;7.00;;;;;;;4.31;82.00;97557.78;109137;1254;69844;-72
2023/01/15 09:50:21;;;;;;;10.60;7.30;;;;;;;4.26;80.31;97557.85;109105;1255;68379;-73
2023/01/15 09:53:18;;;;;;;10.30;6.80;;;;;;;4.25;81.15;97546.85;109004;1256;70091;-73
2023/01/15 09:55:49;;;;;;;8.60;6.20;;;;;;;4.23;80.38;97545.90;109716;1246;57628;-72
2023/01/15 09:58:22;;;;;;;20.70;11.30;;;;;;;4.19;80.55;97540.56;109797;1247;57644;-72
2023/01/15 10:00:51;;;;;;;10.40;7.20;;;;;;;4.15;80.29;97542.98;109746;1247;68956;-75
2023/01/15 10:03:44;;;;;;;7.80;6.50;;;;;;;4.16;81.68;97539.15;109744;1248;68128;-75
2023/01/15 10:06:47;;;;;;;8.70;6.10;;;;;;;4.18;81.21;97533.40;109590;1247;69903;-72
2023/01/15 10:09:30;;;;;;;10.40;6.70;;;;;;;4.20;80.32;97533.46;109595;1249;58144;-74
2023/01/15 10:15:19;;;;;;;8.20;6.00;;;;;;;4.21;80.98;97522.56;109645;1246;70058;-74
2023/01/15 10:17:52;;;;;;;7.70;5.00;;;;;;;4.22;80.63;97514.90;109592;1247;69947;-74
2023/01/15 10:20:59;;;;;;;6.70;5.40;;;;;;;4.25;81.01;97513.55;109594;1248;69695;-73
2023/01/15 10:23:46;;;;;;;7.80;5.70;;;;;;;4.27;80.42;97512.95;109639;1248;58568;-74
2023/01/15 10:26:34;;;;;;;6.60;4.90;;;;;;;4.29;80.29;97505.27;109646;1248;58148;-74
2023/01/15 10:29:21;;;;;;;7.80;5.70;;;;;;;4.35;78.20;97500.15;109675;1248;70523;-72
2023/01/15 10:31:56;;;;;;;6.10;4.70;;;;;;;4.38;77.41;97492.45;109638;1248;67801;-74
2023/01/15 10:34:27;;;;;;;7.30;5.10;;;;;;;4.35;76.44;97484.27;109652;1248;68531;-73
2023/01/15 10:37:22;;;;;;;7.90;5.60;;;;;;;4.37;76.21;97483.48;109666;1248;58141;-72
2023/01/15 10:40:28;;;;;;;6.50;5.10;;;;;;;4.41;76.81;97477.23;109590;1247;58546;-72
2023/01/15 10:43:32;;;;;;;9.80;6.00;;;;;;;4.49;76.53;97469.80;109636;1246;69645;-73
2023/01/15 10:46:17;;;;;;;6.20;4.80;;;;;;;4.57;76.76;97470.97;109659;1249;69257;-71
2023/01/15 10:48:55;;;;;;;6.80;5.40;;;;;;;4.70;76.27;97474.54;109628;1247;68844;-72
2023/01/15 10:51:44;;;;;;;6.30;4.50;;;;;;;4.82;76.18;97468.09;109689;1246;58069;-73
2023/01/15 10:54:40;;;;;;;8.10;5.40;;;;;;;4.94;75.63;97466.09;109714;1247;57995;-74
2023/01/15 10:57:34;;;;;;;8.70;6.00;;;;;;;5.05;75.49;97461.73;109620;1248;69595;-73
2023/01/15 11:00:04;;;;;;;6.50;5.30;;;;;;;5.12;74.97;97457.08;109694;1247;69580;-73
2023/01/15 11:02:38;;;;;;;9.20;6.10;;;;;;;5.15;73.13;97450.73;109876;1244;68297;-74
2023/01/15 11:05:19;;;;;;;6.00;5.10;;;;;;;5.20;73.33;97449.27;109913;1245;58110;-72
2023/01/15 11:07:50;;;;;;;7.80;5.70;;;;;;;5.29;74.77;97446.90;109878;1245;58078;-73
2023/01/15 11:10:40;;;;;;;7.80;5.60;;;;;;;5.31;73.51;97448.30;109930;1245;70415;-72
2023/01/15 11:21:53;;;;;;;8.10;5.70;;;;;;;5.75;71.24;97436.19;109829;1245;58125;-74
2023/01/15 11:24:22;;;;;;;6.50;5.10;;;;;;;5.87;72.07;97435.06;109866;1245;69570;-76
2023/01/15 11:26:53;;;;;;;9.00;5.00;;;;;;;5.96;71.76;97435.63;110012;1244;69127;-76
2023/01/15 11:29:33;;;;;;;6.80;5.00;;;;;;;5.98;69.54;97434.10;110120;1245;69140;-73
2023/01/15 11:32:02;;;;;;;11.80;9.30;;;;;;;6.03;68.57;97435.61;109820;1243;58144;-73
2023/01/15 11:34:31;;;;;;;16.70;12.40;;;;;;;6.00;68.56;97432.83;109845;1245;58067;-74
2023/01/15 11:37:01;;;;;;;8.70;6.20;;;;;;;5.94;69.12;97432.96;109890;1243;69607;-75
2023/01/15 11:39:31;;;;;;;7.50;5.60;;;;;;;5.98;70.79;97432.95;110098;1245;69863;-75
2023/01/15 11:50:51;;;;;;;7.50;5.30;;;;;;;6.08;67.77;97421.45;110558;1243;69487;-74
2023/01/15 11:53:33;;;;;;;7.40;5.10;;;;;;;6.07;67.90;97417.36;110663;1245;68799;-74
2023/01/15 11:56:07;;;;;;;7.20;5.30;;;;;;;6.17;67.55;97415.77;109963;1245;68591;-74
2023/01/15 11:58:56;;;;;;;7.20;5.20;;;;;;;6.23;68.39;97408.55;109966;1242;58085;-74
2023/01/15 12:01:34;;;;;;;7.80;5.70;;;;;;;6.29;68.33;97401.80;110040;1243;58057;-74
2023/01/15 12:04:07;;;;;;;6.70;5.40;;;;;;;6.46;68.46;97394.46;109932;1245;68771;-75
2023/01/15 12:06:39;;;;;;;9.20;5.50;;;;;;;7.37;64.89;97384.95;109914;1245;69249;-75
2023/01/15 12:09:29;;;;;;;6.50;4.80;;;;;;;8.30;60.85;97376.98;110045;1244;69165;-74
2023/01/15 12:12:22;;;;;;;7.80;6.10;;;;;;;8.72;62.79;97369.38;110057;1244;58100;-74
2023/01/15 12:15:04;;;;;;;7.40;5.90;;;;;;;9.35;61.55;97366.34;109894;1245;58114;-74
2023/01/15 12:17:42;;;;;;;6.90;5.60;;;;;;;9.73;58.56;97357.42;109816;1245;70316;-76
2023/01/15 12:20:53;;;;;;;6.80;5.40;;;;;;;9.90;56.66;97354.30;110022;1243;69096;-76
2023/01/15 12:23:33;;;;;;;7.10;5.60;;;;;;;10.18;54.45;97344.83;109963;1245;68785;-76
2023/01/15 12:26:16;;;;;;;8.40;5.70;;;;;;;10.16;54.99;97340.25;109835;1245;58183;-75
2023/01/15 12:29:19;;;;;;;6.80;5.80;;;;;;;10.66;57.78;97337.17;109799;1245;58454;-75
2023/01/15 12:31:54;;;;;;;6.10;4.50;;;;;;;11.32;53.59;97327.31;109750;1245;69844;-75
2023/01/15 12:34:28;;;;;;;7.40;5.60;;;;;;;11.25;52.63;97325.08;109909;1244;69581;-76
2023/01/15 12:37:21;;;;;;;6.20;5.10;;;;;;;11.12;50.47;97319.25;110007;1244;68338;-76
2023/01/15 12:40:27;;;;;;;7.90;6.90;;;;;;;11.95;52.32;97317.48;110103;1244;58066;-75
2023/01/15 12:45:48;;;;;;;6.90;6.20;;;;;;;13.36;45.21;97301.66;110047;1243;70200;-76
2023/01/15 12:48:33;;;;;;;6.10;4.80;;;;;;;13.92;44.63;97293.60;110177;1245;69071;-76
2023/01/15 12:51:05;;;;;;;7.50;5.60;;;;;;;15.06;47.43;97290.16;110023;1245;69729;-76